Flight Track Log - Related Links

Times and Time Zones

All times are in EST time to prevent confusion due to time zone crossing. See the EJA941 flight status page for this flight to view local times or setup timezone preferences in your user account.

Time Position Orientation Groundspeed Altitude Reporting Facility
EST Latitude Longitude Course Direction KTS MPH feet Rate Location/Type
Thu 10:18:19 AM 32.8000 -96.7833 128° Southeast 220 253 4,600  Level Dallas / Fort Worth TRACON
Thu 10:19:19 AM 32.7500 -96.7667 164° South 234 269 7,900 1,789 Climbing Dallas / Fort Worth TRACON
Thu 10:20:13 AM 32.7000 -96.8333 228° Southwest 256 295 8,000 1,650 Climbing Dallas / Fort Worth TRACON
Thu 10:21:19 AM 32.6500 -96.9167 235° Southwest 277 319 11,200 2,600 Climbing Dallas / Fort Worth TRACON
Thu 10:22:13 AM 32.6500 -97.0000 270° West 318 366 13,200 2,012 Climbing Dallas / Fort Worth TRACON
Thu 10:24:12 AM 32.6672 -97.2200 275° West 342 394 17,000 1,757 Climbing Fort Worth Center
Thu 10:25:14 AM 32.6761 -97.3372 275° West 355 409 18,500 1,756 Climbing Fort Worth Center
Thu 10:26:15 AM 32.6872 -97.4661 276° West 361 415 20,600 2,000 Climbing Fort Worth Center
Thu 10:27:17 AM 32.6967 -97.5856 275° West 362 417 22,600 1,645 Climbing Fort Worth Center
Thu 10:28:19 AM 32.7047 -97.6983 275° West 369 425 24,000 976 Climbing Fort Worth Center
Thu 10:29:20 AM 32.7147 -97.8328 275° West 404 465 24,600 1,073 Climbing Fort Worth Center
Thu 10:30:22 AM 32.7250 -97.9703 275° West 416 479 26,200 1,742 Climbing Fort Worth Center
Thu 10:31:24 AM 32.7142 -98.1042 265° West 412 474 28,200 2,081 Climbing Fort Worth Center
Thu 10:32:26 AM 32.6956 -98.2653 262° West 411 473 30,500 1,805 Climbing Fort Worth Center
Thu 10:33:27 AM 32.6867 -98.4028 266° West 417 480 31,900 732 Climbing Fort Worth Center
Thu 10:34:29 AM 32.6775 -98.5567 266° West 443 510 32,000 48 Climbing Fort Worth Center
Thu 10:35:31 AM 32.6683 -98.7083 266° West 458 527 32,000 532 Level Fort Worth Center
Thu 10:36:33 AM 32.6586 -98.8581 266° West 455 524 33,100 1,355 Climbing Fort Worth Center
Thu 10:37:35 AM 32.6481 -99.0019 265° West 440 506 34,800 1,561 Climbing Fort Worth Center
Thu 10:38:36 AM 32.6394 -99.1433 266° West 430 495 36,300 1,561 Climbing Fort Worth Center
Thu 10:39:38 AM 32.6286 -99.2814 265° West 421 484 38,000 1,548 Climbing Fort Worth Center
Thu 10:40:40 AM 32.6189 -99.4197 265° West 421 484 39,500 1,694 Climbing Fort Worth Center
Thu 10:41:42 AM 32.6078 -99.5786 265° West 404 465 41,500 1,548 Climbing Fort Worth Center
Thu 10:42:44 AM 32.5986 -99.7064 265° West 389 448 42,700 726 Climbing Fort Worth Center
Thu 10:43:46 AM 32.5925 -99.8292 267° West 389 448 43,000 145 Climbing Fort Worth Center
Thu 10:44:48 AM 32.5839 -99.9756 266° West 406 467 43,000  Level Fort Worth Center
Thu 10:45:50 AM 32.5697 -100.1164 263° West 421 484 43,000  Level Fort Worth Center
Thu 10:46:52 AM 32.5592 -100.2603 265° West 433 498 43,000  Level Fort Worth Center
Thu 10:47:53 AM 32.5483 -100.4058 265° West 441 507 43,000  Level Fort Worth Center
Thu 10:48:55 AM 32.5378 -100.5508 265° West 442 509 43,000  Level Fort Worth Center
Thu 10:49:57 AM 32.5264 -100.6956 265° West 442 509 43,000  Level Fort Worth Center
Thu 10:50:59 AM 32.5139 -100.8386 264° West 438 504 43,000  Level Fort Worth Center
Thu 10:52:01 AM 32.5017 -101.0103 265° West 436 502 43,000  Level Fort Worth Center
Thu 10:53:03 AM 32.4892 -101.1522 264° West 435 501 43,000  Level Fort Worth Center
Thu 10:54:05 AM 32.4761 -101.2983 264° West 432 497 43,000  Level Fort Worth Center
Thu 10:55:07 AM 32.4631 -101.4389 264° West 432 497 43,000  Level Fort Worth Center
Thu 10:56:09 AM 32.4514 -101.5808 264° West 434 499 43,000  Level Fort Worth Center
Thu 10:57:11 AM 32.4383 -101.7217 264° West 433 498 43,000  Level Fort Worth Center
Thu 10:58:13 AM 32.4256 -101.8639 264° West 436 502 43,000  Level Fort Worth Center
Thu 10:59:15 AM 32.4097 -102.0350 264° West 437 503 43,000  Level Fort Worth Center
Thu 11:00:17 AM 32.3961 -102.1769 264° West 436 502 43,000  Level Fort Worth Center
Thu 11:01:19 AM 32.3822 -102.3206 264° West 435 501 43,000  Level Fort Worth Center
Thu 11:02:21 AM 32.3694 -102.4644 264° West 433 498 43,000  Level Fort Worth Center
Thu 11:03:23 AM 32.3561 -102.6075 264° West 433 498 43,000  Level Fort Worth Center
Thu 11:04:25 AM 32.3425 -102.7492 264° West 432 497 43,000  Level Fort Worth Center
Thu 11:05:27 AM 32.3289 -102.8897 263° West 432 497 43,000  Level Fort Worth Center
Thu 11:06:29 AM 32.3150 -103.0306 263° West 431 496 43,000  Level Fort Worth Center
Thu 11:07:31 AM 32.2983 -103.1986 263° West 431 496 43,000  Level Fort Worth Center
Thu 11:08:33 AM 32.2853 -103.3394 264° West 433 498 43,000  Level Fort Worth Center
Thu 11:09:35 AM 32.2694 -103.4797 262° West 432 497 43,000  Level Fort Worth Center
Thu 11:10:37 AM 32.2553 -103.6206 263° West 433 498 43,000  Level Fort Worth Center
Thu 11:11:39 AM 32.2408 -103.7622 263° West 434 499 43,000  Level Fort Worth Center
Thu 11:12:41 AM 32.2250 -103.9031 262° West 435 501 43,000  Level Fort Worth Center
Thu 11:13:42 AM 32.2072 -104.0731 263° West 436 502 43,000  Level Fort Worth Center
Thu 11:14:12 AM 32.2022 -104.1286 264° West 438 504 43,000  Level Albuquerque Center
Thu 11:15:13 AM 32.1864 -104.2700 262° West 438 504 43,000  Level Albuquerque Center
Thu 11:16:15 AM 32.1708 -104.4125 263° West 439 505 43,000  Level Albuquerque Center
Thu 11:17:17 AM 32.1517 -104.5833 262° West 440 506 43,000  Level Albuquerque Center
Thu 11:18:19 AM 32.1356 -104.7253 262° West 440 506 43,000  Level Albuquerque Center
Thu 11:19:21 AM 32.1194 -104.8672 262° West 440 506 43,000  Level Albuquerque Center
Thu 11:20:23 AM 32.1031 -105.0078 262° West 437 503 43,000  Level Albuquerque Center
Thu 11:21:25 AM 32.0869 -105.1508 262° West 439 505 43,000  Level Albuquerque Center
Thu 11:22:27 AM 32.0667 -105.3219 262° West 441 507 43,000  Level Albuquerque Center
Thu 11:23:29 AM 32.0503 -105.4642 262° West 442 509 43,000  Level Albuquerque Center
Thu 11:24:31 AM 32.0319 -105.6097 262° West 449 517 43,000  Level Albuquerque Center
Thu 11:25:33 AM 32.0158 -105.7547 263° West 450 518 43,000  Level Albuquerque Center
Thu 11:26:35 AM 31.9969 -105.8994 261° West 450 518 43,000  Level Albuquerque Center
Thu 11:27:37 AM 31.9789 -106.0531 262° West 452 520 43,000  Level Albuquerque Center
Thu 11:28:39 AM 31.9608 -106.1978 262° West 448 516 43,000  Level Albuquerque Center
Thu 11:29:41 AM 31.9636 -106.3761 271° West 456 525 43,000  Level Albuquerque Center
Thu 11:30:43 AM 31.9817 -106.5242 278° West 457 526 43,000  Level Albuquerque Center
Thu 11:31:44 AM 31.9992 -106.6719 278° West 456 525 43,000  Level Albuquerque Center
Thu 11:32:46 AM 32.0172 -106.8211 278° West 458 527 43,000  Level Albuquerque Center
Thu 11:33:48 AM 32.0344 -106.9717 278° West 461 531 43,000  Level Albuquerque Center
Thu 11:34:50 AM 32.0500 -107.1222 277° West 461 531 43,000  Level Albuquerque Center
Thu 11:35:52 AM 32.0667 -107.2731 277° West 461 531 43,000  Level Albuquerque Center
Thu 11:36:54 AM 32.0833 -107.4228 278° West 459 528 43,000  Level Albuquerque Center
Thu 11:37:56 AM 32.1017 -107.6050 277° West 461 531 43,000  Level Albuquerque Center
Thu 11:38:58 AM 32.1158 -107.7528 276° West 458 527 43,000  Level Albuquerque Center
Thu 11:40:00 AM 32.1308 -107.9022 277° West 457 526 43,000  Level Albuquerque Center
Thu 11:41:01 AM 32.1458 -108.0519 277° West 457 526 43,000  Level Albuquerque Center
Thu 11:42:03 AM 32.1614 -108.2025 277° West 460 529 43,000  Level Albuquerque Center
Thu 11:43:05 AM 32.1772 -108.3528 277° West 461 531 43,000  Level Albuquerque Center
Thu 11:44:07 AM 32.1956 -108.5047 278° West 463 533 43,000  Level Albuquerque Center
Thu 11:45:09 AM 32.2106 -108.6561 277° West 464 534 43,000  Level Albuquerque Center
Thu 11:46:11 AM 32.2269 -108.8361 276° West 461 531 43,000  Level Albuquerque Center
Thu 11:47:13 AM 32.2425 -108.9839 277° West 456 525 43,000 -341 Level Albuquerque Center
Thu 11:48:14 AM 32.2564 -109.1342 276° West 458 527 42,300 -829 Descending Albuquerque Center
Thu 11:49:16 AM 32.2722 -109.2814 277° West 454 522 41,300 -968 Descending Albuquerque Center
Thu 11:50:18 AM 32.3061 -109.4192 286° West 435 501 40,300 -1,210 Descending Albuquerque Center
Thu 11:51:20 AM 32.3406 -109.5631 286° West 449 517 38,800 -1,452 Descending Albuquerque Center
Thu 11:52:22 AM 32.3753 -109.7008 287° West 440 506 37,300 -1,561 Descending Albuquerque Center
Thu 11:53:23 AM 32.4081 -109.8375 286° West 433 498 35,600 -1,902 Descending Albuquerque Center
Thu 11:54:25 AM 32.4497 -110.0064 286° West 441 507 33,400 -2,226 Descending Albuquerque Center
Thu 11:55:27 AM 32.4839 -110.1511 286° West 453 521 31,000 -2,323 Descending Albuquerque Center
Thu 11:56:29 AM 32.5192 -110.2956 286° West 456 525 28,600 -2,323 Descending Albuquerque Center
Thu 11:57:31 AM 32.5517 -110.4411 285° West 424 488 26,200 -2,177 Descending Albuquerque Center
Thu 11:58:33 AM 32.5861 -110.5761 287° West 424 488 24,100 -1,073 Descending Albuquerque Center
Thu 11:59:34 AM 32.6461 -110.6992 300° West 427 491 24,000 -49 Descending Albuquerque Center
Thu 12:00:36 PM 32.7117 -110.8197 303° West 434 499 24,000 -339 Level Albuquerque Center
Thu 12:01:38 PM 32.7800 -110.9472 303° West 449 517 23,300 -1,403 Descending Albuquerque Center
Thu 12:02:40 PM 32.8461 -111.0731 302° West 452 520 21,100 -2,081 Descending Albuquerque Center
Thu 12:03:42 PM 32.9006 -111.1856 300° West 404 465 19,000 -2,081 Descending Albuquerque Center
Thu 12:04:44 PM 32.9539 -111.2983 299° West 328 377 16,800 -1,951 Descending Albuquerque Center
Thu 12:05:45 PM 32.9931 -111.3842 299° West 299 344 15,000 -1,561 Descending Albuquerque Center
Thu 12:06:47 PM 33.0358 -111.4678 301° West 296 341 13,600 -1,403 Descending Albuquerque Center
Thu 12:07:49 PM 33.0772 -111.5492 301° West 290 334 12,100 -774 Descending Albuquerque Center
Thu 12:08:51 PM 33.1181 -111.6278 302° West 282 325 12,000 -435 Descending Albuquerque Center
Thu 12:09:53 PM 33.1583 -111.7086 301° West 282 325 11,200 -968 Descending Albuquerque Center
Thu 12:10:55 PM 33.1997 -111.7906 301° West 287 330 10,000 -581 Descending Albuquerque Center
Thu 12:11:57 PM 33.2481 -111.8864 301° West 281 323 10,000 -581 Level Albuquerque Center
Thu 12:12:59 PM 33.2842 -111.9583 301° West 257 296 8,800 -1,113 Descending Albuquerque Center
Thu 12:14:01 PM 33.3178 -112.0250 301° West 238 274 7,700 -1,016 Descending Albuquerque Center
Thu 12:15:03 PM 33.3428 -112.0869 296° West 205 236 6,700 -823 Descending Albuquerque Center
Thu 12:16:05 PM 33.3425 -112.1514 270° West 194 223 6,000 -339 Descending Albuquerque Center
Thu 12:17:07 PM 33.3428 -112.2131 270° West 188 216 6,000 -339 Level Albuquerque Center
Thu 12:18:09 PM 33.3667 -112.2572 303° West 190 219 5,300 -726 Descending Albuquerque Center
Thu 12:19:11 PM 33.4119 -112.2219 33° Northeast 174 200 4,500 -871 Descending Albuquerque Center
Thu 12:20:13 PM 33.4289 -112.1686 69° East 169 194 3,500 -885 Descending Albuquerque Center
Thu 12:21:13 PM 33.4333 -112.1167 84° East 156 180 2,700 -789 Descending Phoenix TRACON
Thu 12:22:07 PM 33.4333 -112.0833 90° East 133 153 2,000 -778 Descending Phoenix TRACON

Login

Don't have an account? Register now (free) for customized features, flight alerts, and more!